Terminal Aerodrome Forecast
Issued by NWS

Home | Current Version | Previous Version | Text Only | Print | Product List | Glossary On
Versions: 1 2 3 4 5 6 7 8 9 10 11 12 13 14 15
000
FTUS45 KSLC 202349
TAFSGU
TAF
KSGU 202349Z 2100/2124 15006KT P6SM -RA SCT020 OVC035
      TEMPO 2101/2105 RA SCT015 OVC030
     FM211200 23010KT P6SM -RA SCT025 BKN040
     FM211800 25008KT P6SM VCSH SCT050
      AMD LTD TO CLD VIS AND WIND=

USA.gov is the U.S. government's official web portal to all federal, state and local government web resources and services.